sensor_id;sensor_type;location;lat;lon;timestamp;P1;durP1;ratioP1;P2;durP2;ratioP2
52668;SDS011;59898;52.786;6.892;2022-07-19T00:02:23;7.82;;;4.95;;
52668;SDS011;59898;52.786;6.892;2022-07-19T00:05:44;7.03;;;4.40;;
52668;SDS011;59898;52.786;6.892;2022-07-19T00:09:05;7.35;;;4.60;;
52668;SDS011;59898;52.786;6.892;2022-07-19T00:12:26;7.65;;;5.00;;
52668;SDS011;59898;52.786;6.892;2022-07-19T00:15:46;7.15;;;5.18;;
52668;SDS011;59898;52.786;6.892;2022-07-19T00:19:07;6.82;;;4.35;;
52668;SDS011;59898;52.786;6.892;2022-07-19T00:22:28;5.38;;;4.30;;
52668;SDS011;59898;52.786;6.892;2022-07-19T00:25:48;8.10;;;4.93;;
52668;SDS011;59898;52.786;6.892;2022-07-19T00:29:09;8.52;;;4.70;;
52668;SDS011;59898;52.786;6.892;2022-07-19T00:32:30;10.57;;;5.35;;
52668;SDS011;59898;52.786;6.892;2022-07-19T00:35:51;7.78;;;4.72;;
52668;SDS011;59898;52.786;6.892;2022-07-19T00:39:11;9.25;;;4.57;;
52668;SDS011;59898;52.786;6.892;2022-07-19T00:42:32;6.63;;;4.82;;
52668;SDS011;59898;52.786;6.892;2022-07-19T00:45:53;8.95;;;5.07;;
52668;SDS011;59898;52.786;6.892;2022-07-19T00:49:13;8.00;;;4.53;;
52668;SDS011;59898;52.786;6.892;2022-07-19T00:52:34;6.22;;;4.18;;
52668;SDS011;59898;52.786;6.892;2022-07-19T00:55:57;6.80;;;4.35;;
52668;SDS011;59898;52.786;6.892;2022-07-19T00:59:19;9.63;;;4.63;;
52668;SDS011;59898;52.786;6.892;2022-07-19T01:02:41;6.45;;;4.72;;
52668;SDS011;59898;52.786;6.892;2022-07-19T01:06:02;6.75;;;4.80;;
52668;SDS011;59898;52.786;6.892;2022-07-19T01:09:23;7.95;;;4.47;;
52668;SDS011;59898;52.786;6.892;2022-07-19T01:12:44;8.63;;;4.50;;
52668;SDS011;59898;52.786;6.892;2022-07-19T01:16:05;6.97;;;5.00;;
52668;SDS011;59898;52.786;6.892;2022-07-19T01:19:26;7.15;;;5.00;;
52668;SDS011;59898;52.786;6.892;2022-07-19T01:22:47;9.88;;;5.10;;
52668;SDS011;59898;52.786;6.892;2022-07-19T01:26:08;7.28;;;4.90;;
52668;SDS011;59898;52.786;6.892;2022-07-19T01:29:28;6.13;;;4.63;;
52668;SDS011;59898;52.786;6.892;2022-07-19T01:32:49;5.88;;;4.40;;
52668;SDS011;59898;52.786;6.892;2022-07-19T01:36:10;8.20;;;5.85;;
52668;SDS011;59898;52.786;6.892;2022-07-19T01:39:31;9.15;;;4.85;;
52668;SDS011;59898;52.786;6.892;2022-07-19T01:42:51;6.82;;;5.53;;
52668;SDS011;59898;52.786;6.892;2022-07-19T01:46:12;10.60;;;4.70;;
52668;SDS011;59898;52.786;6.892;2022-07-19T01:49:33;7.38;;;5.93;;
52668;SDS011;59898;52.786;6.892;2022-07-19T01:52:54;6.80;;;4.40;;
52668;SDS011;59898;52.786;6.892;2022-07-19T01:56:14;6.65;;;4.93;;
52668;SDS011;59898;52.786;6.892;2022-07-19T01:59:35;8.35;;;5.93;;
52668;SDS011;59898;52.786;6.892;2022-07-19T02:02:56;7.32;;;5.03;;
52668;SDS011;59898;52.786;6.892;2022-07-19T02:06:17;8.90;;;4.90;;
52668;SDS011;59898;52.786;6.892;2022-07-19T02:09:37;8.65;;;5.43;;
52668;SDS011;59898;52.786;6.892;2022-07-19T02:12:58;6.80;;;5.28;;
52668;SDS011;59898;52.786;6.892;2022-07-19T02:16:19;11.30;;;5.88;;
52668;SDS011;59898;52.786;6.892;2022-07-19T02:19:39;9.45;;;5.32;;
52668;SDS011;59898;52.786;6.892;2022-07-19T02:23:00;11.45;;;5.55;;
52668;SDS011;59898;52.786;6.892;2022-07-19T02:26:21;8.80;;;5.35;;
52668;SDS011;59898;52.786;6.892;2022-07-19T02:29:42;10.13;;;6.28;;
52668;SDS011;59898;52.786;6.892;2022-07-19T02:33:02;7.05;;;4.88;;
52668;SDS011;59898;52.786;6.892;2022-07-19T02:36:23;9.20;;;5.30;;
52668;SDS011;59898;52.786;6.892;2022-07-19T02:39:43;13.98;;;5.15;;
52668;SDS011;59898;52.786;6.892;2022-07-19T02:43:04;11.32;;;6.45;;
52668;SDS011;59898;52.786;6.892;2022-07-19T02:46:25;7.68;;;5.82;;
52668;SDS011;59898;52.786;6.892;2022-07-19T02:49:45;10.45;;;6.03;;
52668;SDS011;59898;52.786;6.892;2022-07-19T02:53:06;8.85;;;6.20;;
52668;SDS011;59898;52.786;6.892;2022-07-19T02:56:27;14.02;;;5.80;;
52668;SDS011;59898;52.786;6.892;2022-07-19T02:59:47;11.60;;;6.55;;
52668;SDS011;59898;52.786;6.892;2022-07-19T03:03:08;16.98;;;5.82;;
52668;SDS011;59898;52.786;6.892;2022-07-19T03:06:47;8.93;;;6.22;;
52668;SDS011;59898;52.786;6.892;2022-07-19T03:10:08;10.60;;;5.65;;
52668;SDS011;59898;52.786;6.892;2022-07-19T03:13:29;12.32;;;6.47;;
52668;SDS011;59898;52.786;6.892;2022-07-19T03:16:50;7.25;;;5.60;;
52668;SDS011;59898;52.786;6.892;2022-07-19T03:20:10;9.07;;;5.68;;
52668;SDS011;59898;52.786;6.892;2022-07-19T03:23:32;8.75;;;6.28;;
52668;SDS011;59898;52.786;6.892;2022-07-19T03:26:54;8.27;;;6.03;;
52668;SDS011;59898;52.786;6.892;2022-07-19T03:30:14;9.30;;;5.82;;
52668;SDS011;59898;52.786;6.892;2022-07-19T03:33:35;10.38;;;6.60;;
52668;SDS011;59898;52.786;6.892;2022-07-19T03:36:56;9.25;;;6.10;;
52668;SDS011;59898;52.786;6.892;2022-07-19T03:40:17;14.65;;;6.80;;
52668;SDS011;59898;52.786;6.892;2022-07-19T03:43:38;9.07;;;6.45;;
52668;SDS011;59898;52.786;6.892;2022-07-19T03:46:59;11.20;;;6.82;;
52668;SDS011;59898;52.786;6.892;2022-07-19T03:50:19;8.27;;;6.20;;
52668;SDS011;59898;52.786;6.892;2022-07-19T03:53:40;7.28;;;5.82;;
52668;SDS011;59898;52.786;6.892;2022-07-19T03:57:01;9.65;;;7.05;;
52668;SDS011;59898;52.786;6.892;2022-07-19T04:00:21;10.68;;;6.55;;
52668;SDS011;59898;52.786;6.892;2022-07-19T04:03:42;10.93;;;7.63;;
52668;SDS011;59898;52.786;6.892;2022-07-19T04:07:03;9.68;;;6.10;;
52668;SDS011;59898;52.786;6.892;2022-07-19T04:10:24;9.60;;;6.38;;
52668;SDS011;59898;52.786;6.892;2022-07-19T04:13:44;10.30;;;6.50;;
52668;SDS011;59898;52.786;6.892;2022-07-19T04:17:05;10.02;;;5.93;;
52668;SDS011;59898;52.786;6.892;2022-07-19T04:20:26;8.55;;;6.53;;
52668;SDS011;59898;52.786;6.892;2022-07-19T04:23:46;10.88;;;5.70;;
52668;SDS011;59898;52.786;6.892;2022-07-19T04:27:07;11.10;;;6.28;;
52668;SDS011;59898;52.786;6.892;2022-07-19T04:30:29;11.23;;;6.00;;
52668;SDS011;59898;52.786;6.892;2022-07-19T04:33:50;10.23;;;7.07;;
52668;SDS011;59898;52.786;6.892;2022-07-19T04:37:10;8.60;;;6.70;;
52668;SDS011;59898;52.786;6.892;2022-07-19T04:40:31;8.77;;;6.78;;
52668;SDS011;59898;52.786;6.892;2022-07-19T04:43:52;8.75;;;5.97;;
52668;SDS011;59898;52.786;6.892;2022-07-19T04:47:12;10.35;;;7.40;;
52668;SDS011;59898;52.786;6.892;2022-07-19T04:50:33;8.73;;;6.47;;
52668;SDS011;59898;52.786;6.892;2022-07-19T04:53:54;10.70;;;6.90;;
52668;SDS011;59898;52.786;6.892;2022-07-19T04:57:15;11.48;;;6.15;;
52668;SDS011;59898;52.786;6.892;2022-07-19T05:00:35;9.57;;;6.22;;
52668;SDS011;59898;52.786;6.892;2022-07-19T05:03:56;9.02;;;6.50;;
52668;SDS011;59898;52.786;6.892;2022-07-19T05:07:17;8.27;;;6.68;;
52668;SDS011;59898;52.786;6.892;2022-07-19T05:10:38;13.85;;;7.45;;
52668;SDS011;59898;52.786;6.892;2022-07-19T05:13:58;16.77;;;8.15;;
52668;SDS011;59898;52.786;6.892;2022-07-19T05:17:19;14.13;;;7.05;;
52668;SDS011;59898;52.786;6.892;2022-07-19T05:20:43;10.27;;;7.75;;
52668;SDS011;59898;52.786;6.892;2022-07-19T05:24:03;8.60;;;5.82;;
52668;SDS011;59898;52.786;6.892;2022-07-19T05:27:24;10.82;;;6.72;;
52668;SDS011;59898;52.786;6.892;2022-07-19T05:30:45;10.25;;;6.55;;
52668;SDS011;59898;52.786;6.892;2022-07-19T05:34:06;9.57;;;6.30;;
52668;SDS011;59898;52.786;6.892;2022-07-19T05:37:26;9.23;;;6.38;;
52668;SDS011;59898;52.786;6.892;2022-07-19T05:40:47;8.55;;;5.97;;
52668;SDS011;59898;52.786;6.892;2022-07-19T05:44:08;14.25;;;6.65;;
52668;SDS011;59898;52.786;6.892;2022-07-19T05:47:29;9.82;;;6.80;;
52668;SDS011;59898;52.786;6.892;2022-07-19T05:50:49;16.58;;;7.43;;
52668;SDS011;59898;52.786;6.892;2022-07-19T05:54:10;7.90;;;5.90;;
52668;SDS011;59898;52.786;6.892;2022-07-19T05:57:31;11.00;;;5.82;;
52668;SDS011;59898;52.786;6.892;2022-07-19T06:00:52;10.82;;;6.70;;
52668;SDS011;59898;52.786;6.892;2022-07-19T06:04:31;10.05;;;5.78;;
52668;SDS011;59898;52.786;6.892;2022-07-19T06:07:51;11.98;;;6.55;;
52668;SDS011;59898;52.786;6.892;2022-07-19T06:11:13;11.68;;;6.60;;
52668;SDS011;59898;52.786;6.892;2022-07-19T06:14:35;10.23;;;6.00;;
52668;SDS011;59898;52.786;6.892;2022-07-19T06:17:55;11.65;;;6.32;;
52668;SDS011;59898;52.786;6.892;2022-07-19T06:21:17;13.35;;;7.90;;
52668;SDS011;59898;52.786;6.892;2022-07-19T06:27:59;11.40;;;5.85;;
52668;SDS011;59898;52.786;6.892;2022-07-19T06:31:20;11.43;;;5.75;;
52668;SDS011;59898;52.786;6.892;2022-07-19T06:34:41;10.23;;;5.97;;
52668;SDS011;59898;52.786;6.892;2022-07-19T06:38:02;12.20;;;5.15;;
52668;SDS011;59898;52.786;6.892;2022-07-19T06:41:22;10.13;;;5.53;;
52668;SDS011;59898;52.786;6.892;2022-07-19T06:44:43;11.98;;;5.55;;
52668;SDS011;59898;52.786;6.892;2022-07-19T06:48:04;11.82;;;5.53;;
52668;SDS011;59898;52.786;6.892;2022-07-19T06:51:25;10.38;;;5.47;;
52668;SDS011;59898;52.786;6.892;2022-07-19T06:54:46;10.52;;;5.32;;
52668;SDS011;59898;52.786;6.892;2022-07-19T06:58:06;6.75;;;4.70;;
52668;SDS011;59898;52.786;6.892;2022-07-19T07:01:27;10.82;;;5.30;;
52668;SDS011;59898;52.786;6.892;2022-07-19T07:04:48;9.43;;;5.75;;
52668;SDS011;59898;52.786;6.892;2022-07-19T07:08:08;10.32;;;5.22;;
52668;SDS011;59898;52.786;6.892;2022-07-19T07:11:29;9.52;;;5.70;;
52668;SDS011;59898;52.786;6.892;2022-07-19T07:14:50;8.88;;;5.50;;
52668;SDS011;59898;52.786;6.892;2022-07-19T07:18:11;8.30;;;5.10;;
52668;SDS011;59898;52.786;6.892;2022-07-19T07:21:31;7.53;;;5.53;;
52668;SDS011;59898;52.786;6.892;2022-07-19T07:24:55;11.30;;;5.63;;
52668;SDS011;59898;52.786;6.892;2022-07-19T07:28:15;9.02;;;5.10;;
52668;SDS011;59898;52.786;6.892;2022-07-19T07:31:36;7.90;;;5.68;;
52668;SDS011;59898;52.786;6.892;2022-07-19T07:34:57;11.15;;;4.50;;
52668;SDS011;59898;52.786;6.892;2022-07-19T07:38:17;8.02;;;5.13;;
52668;SDS011;59898;52.786;6.892;2022-07-19T07:41:38;8.70;;;5.32;;
52668;SDS011;59898;52.786;6.892;2022-07-19T07:44:59;10.55;;;5.45;;
52668;SDS011;59898;52.786;6.892;2022-07-19T07:48:20;12.43;;;4.95;;
52668;SDS011;59898;52.786;6.892;2022-07-19T07:51:41;16.63;;;6.78;;
52668;SDS011;59898;52.786;6.892;2022-07-19T07:55:03;7.53;;;5.20;;
52668;SDS011;59898;52.786;6.892;2022-07-19T07:58:25;9.02;;;6.13;;
52668;SDS011;59898;52.786;6.892;2022-07-19T08:01:46;21.08;;;6.72;;
52668;SDS011;59898;52.786;6.892;2022-07-19T08:05:07;9.27;;;5.40;;
52668;SDS011;59898;52.786;6.892;2022-07-19T08:08:28;10.50;;;5.07;;
52668;SDS011;59898;52.786;6.892;2022-07-19T08:11:49;8.35;;;4.90;;
52668;SDS011;59898;52.786;6.892;2022-07-19T08:15:09;8.88;;;5.18;;
52668;SDS011;59898;52.786;6.892;2022-07-19T08:18:30;7.78;;;4.38;;
52668;SDS011;59898;52.786;6.892;2022-07-19T08:21:51;8.10;;;4.10;;
52668;SDS011;59898;52.786;6.892;2022-07-19T08:25:12;7.80;;;4.15;;
52668;SDS011;59898;52.786;6.892;2022-07-19T08:28:36;7.18;;;4.28;;
52668;SDS011;59898;52.786;6.892;2022-07-19T08:31:57;6.47;;;3.83;;
52668;SDS011;59898;52.786;6.892;2022-07-19T08:35:18;9.43;;;4.82;;
52668;SDS011;59898;52.786;6.892;2022-07-19T08:38:38;7.53;;;4.80;;
52668;SDS011;59898;52.786;6.892;2022-07-19T08:41:59;8.15;;;5.78;;
52668;SDS011;59898;52.786;6.892;2022-07-19T08:45:20;7.25;;;4.38;;
52668;SDS011;59898;52.786;6.892;2022-07-19T08:48:42;10.00;;;5.00;;
52668;SDS011;59898;52.786;6.892;2022-07-19T08:52:04;6.43;;;4.97;;
52668;SDS011;59898;52.786;6.892;2022-07-19T08:55:25;8.07;;;5.22;;
52668;SDS011;59898;52.786;6.892;2022-07-19T08:58:46;15.05;;;5.00;;
52668;SDS011;59898;52.786;6.892;2022-07-19T09:02:06;8.77;;;4.50;;
52668;SDS011;59898;52.786;6.892;2022-07-19T09:05:27;8.50;;;4.68;;
52668;SDS011;59898;52.786;6.892;2022-07-19T09:08:49;12.00;;;6.10;;
52668;SDS011;59898;52.786;6.892;2022-07-19T09:12:10;10.37;;;4.83;;
52668;SDS011;59898;52.786;6.892;2022-07-19T09:15:41;9.40;;;4.97;;
52668;SDS011;59898;52.786;6.892;2022-07-19T09:19:03;10.07;;;4.60;;
52668;SDS011;59898;52.786;6.892;2022-07-19T09:22:24;9.87;;;5.03;;
52668;SDS011;59898;52.786;6.892;2022-07-19T09:25:47;7.22;;;4.60;;
52668;SDS011;59898;52.786;6.892;2022-07-19T09:29:16;10.68;;;5.00;;
52668;SDS011;59898;52.786;6.892;2022-07-19T09:32:37;10.45;;;4.78;;
52668;SDS011;59898;52.786;6.892;2022-07-19T09:36:03;7.60;;;4.80;;
52668;SDS011;59898;52.786;6.892;2022-07-19T09:39:31;9.93;;;4.97;;
52668;SDS011;59898;52.786;6.892;2022-07-19T09:42:52;9.75;;;4.45;;
52668;SDS011;59898;52.786;6.892;2022-07-19T09:46:26;8.43;;;4.35;;
52668;SDS011;59898;52.786;6.892;2022-07-19T09:49:51;11.10;;;5.78;;
52668;SDS011;59898;52.786;6.892;2022-07-19T09:53:12;10.15;;;5.03;;
52668;SDS011;59898;52.786;6.892;2022-07-19T09:56:33;11.73;;;4.82;;
52668;SDS011;59898;52.786;6.892;2022-07-19T09:59:56;6.60;;;3.70;;
52668;SDS011;59898;52.786;6.892;2022-07-19T10:03:18;8.38;;;4.47;;
52668;SDS011;59898;52.786;6.892;2022-07-19T10:06:40;7.27;;;4.30;;
52668;SDS011;59898;52.786;6.892;2022-07-19T10:13:32;8.68;;;4.50;;
52668;SDS011;59898;52.786;6.892;2022-07-19T10:20:19;7.27;;;4.13;;
52668;SDS011;59898;52.786;6.892;2022-07-19T10:23:49;6.63;;;3.78;;
52668;SDS011;59898;52.786;6.892;2022-07-19T10:30:39;7.85;;;4.00;;
52668;SDS011;59898;52.786;6.892;2022-07-19T10:34:02;4.63;;;3.55;;
52668;SDS011;59898;52.786;6.892;2022-07-19T10:37:39;6.53;;;3.63;;
52668;SDS011;59898;52.786;6.892;2022-07-19T10:41:00;10.57;;;3.88;;
52668;SDS011;59898;52.786;6.892;2022-07-19T10:44:21;8.10;;;4.70;;
52668;SDS011;59898;52.786;6.892;2022-07-19T10:47:57;5.87;;;3.60;;
52668;SDS011;59898;52.786;6.892;2022-07-19T10:55:17;5.93;;;4.05;;
52668;SDS011;59898;52.786;6.892;2022-07-19T11:02:28;9.75;;;3.58;;
52668;SDS011;59898;52.786;6.892;2022-07-19T11:05:59;12.33;;;3.87;;
52668;SDS011;59898;52.786;6.892;2022-07-19T11:09:21;8.73;;;4.00;;
52668;SDS011;59898;52.786;6.892;2022-07-19T11:12:42;5.80;;;3.13;;
52668;SDS011;59898;52.786;6.892;2022-07-19T11:16:05;7.22;;;3.85;;
52668;SDS011;59898;52.786;6.892;2022-07-19T11:19:26;8.63;;;3.43;;
52668;SDS011;59898;52.786;6.892;2022-07-19T11:22:47;7.27;;;4.93;;
52668;SDS011;59898;52.786;6.892;2022-07-19T11:29:53;6.82;;;3.85;;
52668;SDS011;59898;52.786;6.892;2022-07-19T11:33:16;3.80;;;3.00;;
52668;SDS011;59898;52.786;6.892;2022-07-19T11:36:38;3.90;;;2.78;;
52668;SDS011;59898;52.786;6.892;2022-07-19T11:39:59;8.73;;;3.10;;
52668;SDS011;59898;52.786;6.892;2022-07-19T11:43:19;5.10;;;2.77;;
52668;SDS011;59898;52.786;6.892;2022-07-19T11:46:42;5.75;;;3.22;;
52668;SDS011;59898;52.786;6.892;2022-07-19T11:50:06;4.17;;;2.93;;
52668;SDS011;59898;52.786;6.892;2022-07-19T11:53:27;6.55;;;3.03;;
52668;SDS011;59898;52.786;6.892;2022-07-19T11:56:48;4.55;;;3.10;;
52668;SDS011;59898;52.786;6.892;2022-07-19T12:00:10;6.47;;;3.40;;
52668;SDS011;59898;52.786;6.892;2022-07-19T12:03:31;6.78;;;3.28;;
52668;SDS011;59898;52.786;6.892;2022-07-19T12:06:52;4.57;;;3.05;;
52668;SDS011;59898;52.786;6.892;2022-07-19T12:14:01;9.05;;;3.30;;
52668;SDS011;59898;52.786;6.892;2022-07-19T12:17:54;4.13;;;3.03;;
52668;SDS011;59898;52.786;6.892;2022-07-19T12:21:18;5.97;;;3.03;;
52668;SDS011;59898;52.786;6.892;2022-07-19T12:24:44;5.50;;;3.10;;
52668;SDS011;59898;52.786;6.892;2022-07-19T12:28:05;3.95;;;2.63;;
52668;SDS011;59898;52.786;6.892;2022-07-19T12:31:26;3.67;;;2.83;;
52668;SDS011;59898;52.786;6.892;2022-07-19T12:34:48;4.67;;;3.27;;
52668;SDS011;59898;52.786;6.892;2022-07-19T12:38:10;7.57;;;3.03;;
52668;SDS011;59898;52.786;6.892;2022-07-19T12:44:52;4.73;;;3.07;;
52668;SDS011;59898;52.786;6.892;2022-07-19T12:48:14;9.40;;;3.40;;
52668;SDS011;59898;52.786;6.892;2022-07-19T12:51:36;8.77;;;3.42;;
52668;SDS011;59898;52.786;6.892;2022-07-19T12:55:02;8.48;;;2.70;;
52668;SDS011;59898;52.786;6.892;2022-07-19T12:58:23;7.45;;;3.58;;
52668;SDS011;59898;52.786;6.892;2022-07-19T13:02:03;5.05;;;2.60;;
52668;SDS011;59898;52.786;6.892;2022-07-19T13:05:24;5.25;;;3.70;;
52668;SDS011;59898;52.786;6.892;2022-07-19T13:08:46;3.63;;;2.63;;
52668;SDS011;59898;52.786;6.892;2022-07-19T13:12:07;5.23;;;2.63;;
52668;SDS011;59898;52.786;6.892;2022-07-19T13:15:29;5.57;;;2.70;;
52668;SDS011;59898;52.786;6.892;2022-07-19T13:18:49;4.40;;;2.73;;
52668;SDS011;59898;52.786;6.892;2022-07-19T13:22:10;10.13;;;2.70;;
52668;SDS011;59898;52.786;6.892;2022-07-19T13:25:31;3.67;;;2.70;;
52668;SDS011;59898;52.786;6.892;2022-07-19T13:28:52;3.30;;;2.90;;
52668;SDS011;59898;52.786;6.892;2022-07-19T13:32:12;6.70;;;2.93;;
52668;SDS011;59898;52.786;6.892;2022-07-19T13:35:34;5.60;;;2.85;;
52668;SDS011;59898;52.786;6.892;2022-07-19T13:38:55;4.80;;;2.65;;
52668;SDS011;59898;52.786;6.892;2022-07-19T13:42:16;6.43;;;3.13;;
52668;SDS011;59898;52.786;6.892;2022-07-19T13:45:37;3.50;;;2.92;;
52668;SDS011;59898;52.786;6.892;2022-07-19T13:48:57;6.23;;;2.60;;
52668;SDS011;59898;52.786;6.892;2022-07-19T13:52:18;5.55;;;2.60;;
52668;SDS011;59898;52.786;6.892;2022-07-19T13:55:39;7.03;;;2.83;;
52668;SDS011;59898;52.786;6.892;2022-07-19T13:59:00;6.97;;;2.90;;
52668;SDS011;59898;52.786;6.892;2022-07-19T14:02:20;3.53;;;2.95;;
52668;SDS011;59898;52.786;6.892;2022-07-19T14:05:41;5.85;;;3.00;;
52668;SDS011;59898;52.786;6.892;2022-07-19T14:09:02;4.10;;;2.80;;
52668;SDS011;59898;52.786;6.892;2022-07-19T14:12:23;4.00;;;3.13;;
52668;SDS011;59898;52.786;6.892;2022-07-19T14:15:44;4.13;;;3.03;;
52668;SDS011;59898;52.786;6.892;2022-07-19T14:19:04;8.37;;;2.90;;
52668;SDS011;59898;52.786;6.892;2022-07-19T14:22:25;6.33;;;3.10;;
52668;SDS011;59898;52.786;6.892;2022-07-19T14:25:46;7.60;;;3.63;;
52668;SDS011;59898;52.786;6.892;2022-07-19T14:29:07;8.93;;;3.23;;
52668;SDS011;59898;52.786;6.892;2022-07-19T14:32:28;8.47;;;3.90;;
52668;SDS011;59898;52.786;6.892;2022-07-19T14:35:48;6.83;;;3.20;;
52668;SDS011;59898;52.786;6.892;2022-07-19T14:39:09;4.05;;;2.85;;
52668;SDS011;59898;52.786;6.892;2022-07-19T14:42:30;4.63;;;3.15;;
52668;SDS011;59898;52.786;6.892;2022-07-19T14:45:51;4.80;;;3.38;;
52668;SDS011;59898;52.786;6.892;2022-07-19T14:49:12;5.50;;;3.17;;
52668;SDS011;59898;52.786;6.892;2022-07-19T14:52:33;8.23;;;3.23;;
52668;SDS011;59898;52.786;6.892;2022-07-19T14:55:54;5.68;;;3.17;;
52668;SDS011;59898;52.786;6.892;2022-07-19T14:59:14;6.77;;;3.20;;
52668;SDS011;59898;52.786;6.892;2022-07-19T15:02:35;7.10;;;3.53;;
52668;SDS011;59898;52.786;6.892;2022-07-19T15:05:56;7.97;;;3.10;;
52668;SDS011;59898;52.786;6.892;2022-07-19T15:09:17;4.43;;;2.90;;
52668;SDS011;59898;52.786;6.892;2022-07-19T15:12:37;12.23;;;3.83;;
52668;SDS011;59898;52.786;6.892;2022-07-19T15:15:58;4.73;;;3.10;;
52668;SDS011;59898;52.786;6.892;2022-07-19T15:19:19;4.40;;;3.10;;
52668;SDS011;59898;52.786;6.892;2022-07-19T15:22:39;8.57;;;3.63;;
52668;SDS011;59898;52.786;6.892;2022-07-19T15:26:00;6.30;;;3.07;;
52668;SDS011;59898;52.786;6.892;2022-07-19T15:29:21;6.30;;;3.47;;
52668;SDS011;59898;52.786;6.892;2022-07-19T15:36:03;4.17;;;3.43;;
52668;SDS011;59898;52.786;6.892;2022-07-19T15:39:24;6.68;;;4.15;;
52668;SDS011;59898;52.786;6.892;2022-07-19T15:42:49;7.23;;;3.27;;
52668;SDS011;59898;52.786;6.892;2022-07-19T15:46:11;7.60;;;3.60;;
52668;SDS011;59898;52.786;6.892;2022-07-19T15:49:32;6.88;;;3.60;;
52668;SDS011;59898;52.786;6.892;2022-07-19T15:52:53;4.35;;;3.15;;
52668;SDS011;59898;52.786;6.892;2022-07-19T15:56:14;9.02;;;4.38;;
52668;SDS011;59898;52.786;6.892;2022-07-19T15:59:35;5.72;;;3.22;;
52668;SDS011;59898;52.786;6.892;2022-07-19T16:02:56;7.10;;;3.37;;
52668;SDS011;59898;52.786;6.892;2022-07-19T16:09:38;5.20;;;3.43;;
52668;SDS011;59898;52.786;6.892;2022-07-19T16:12:58;7.90;;;3.57;;
52668;SDS011;59898;52.786;6.892;2022-07-19T16:16:19;7.93;;;3.50;;
52668;SDS011;59898;52.786;6.892;2022-07-19T16:19:40;5.50;;;3.87;;
52668;SDS011;59898;52.786;6.892;2022-07-19T16:23:01;5.13;;;3.57;;
52668;SDS011;59898;52.786;6.892;2022-07-19T16:26:22;4.15;;;3.40;;
52668;SDS011;59898;52.786;6.892;2022-07-19T16:29:43;6.43;;;3.85;;
52668;SDS011;59898;52.786;6.892;2022-07-19T16:33:04;9.57;;;4.73;;
52668;SDS011;59898;52.786;6.892;2022-07-19T16:36:24;5.67;;;3.80;;
52668;SDS011;59898;52.786;6.892;2022-07-19T16:39:45;6.83;;;3.47;;
52668;SDS011;59898;52.786;6.892;2022-07-19T16:43:06;5.90;;;3.53;;
52668;SDS011;59898;52.786;6.892;2022-07-19T16:46:26;8.77;;;3.60;;
52668;SDS011;59898;52.786;6.892;2022-07-19T16:49:49;6.40;;;3.65;;
52668;SDS011;59898;52.786;6.892;2022-07-19T16:53:10;11.20;;;3.97;;
52668;SDS011;59898;52.786;6.892;2022-07-19T16:56:31;7.97;;;3.38;;
52668;SDS011;59898;52.786;6.892;2022-07-19T16:59:51;8.33;;;3.30;;
52668;SDS011;59898;52.786;6.892;2022-07-19T17:03:12;10.70;;;4.23;;
52668;SDS011;59898;52.786;6.892;2022-07-19T17:06:33;9.83;;;4.60;;
52668;SDS011;59898;52.786;6.892;2022-07-19T17:09:53;5.43;;;3.40;;
52668;SDS011;59898;52.786;6.892;2022-07-19T17:13:14;10.73;;;4.70;;
52668;SDS011;59898;52.786;6.892;2022-07-19T17:16:35;4.33;;;3.47;;
52668;SDS011;59898;52.786;6.892;2022-07-19T17:19:57;6.85;;;3.38;;
52668;SDS011;59898;52.786;6.892;2022-07-19T17:23:18;7.80;;;3.47;;
52668;SDS011;59898;52.786;6.892;2022-07-19T17:26:38;8.90;;;4.37;;
52668;SDS011;59898;52.786;6.892;2022-07-19T17:30:00;7.40;;;3.27;;
52668;SDS011;59898;52.786;6.892;2022-07-19T17:33:21;7.90;;;3.50;;
52668;SDS011;59898;52.786;6.892;2022-07-19T17:36:41;6.50;;;3.90;;
52668;SDS011;59898;52.786;6.892;2022-07-19T17:40:02;4.90;;;3.50;;
52668;SDS011;59898;52.786;6.892;2022-07-19T17:43:23;5.80;;;3.83;;
52668;SDS011;59898;52.786;6.892;2022-07-19T17:46:44;6.03;;;3.23;;
52668;SDS011;59898;52.786;6.892;2022-07-19T17:50:05;8.77;;;4.90;;
52668;SDS011;59898;52.786;6.892;2022-07-19T17:53:27;8.13;;;4.00;;
52668;SDS011;59898;52.786;6.892;2022-07-19T17:56:47;8.57;;;3.77;;
52668;SDS011;59898;52.786;6.892;2022-07-19T18:00:08;4.70;;;3.70;;
52668;SDS011;59898;52.786;6.892;2022-07-19T18:03:31;8.18;;;3.97;;
52668;SDS011;59898;52.786;6.892;2022-07-19T18:06:51;7.07;;;3.70;;
52668;SDS011;59898;52.786;6.892;2022-07-19T18:10:12;7.50;;;3.40;;
52668;SDS011;59898;52.786;6.892;2022-07-19T18:13:33;8.60;;;4.23;;
52668;SDS011;59898;52.786;6.892;2022-07-19T18:16:53;7.93;;;3.30;;
52668;SDS011;59898;52.786;6.892;2022-07-19T18:20:14;4.07;;;3.67;;
52668;SDS011;59898;52.786;6.892;2022-07-19T18:23:36;6.95;;;3.80;;
52668;SDS011;59898;52.786;6.892;2022-07-19T18:26:57;7.17;;;3.90;;
52668;SDS011;59898;52.786;6.892;2022-07-19T18:30:18;7.27;;;3.50;;
52668;SDS011;59898;52.786;6.892;2022-07-19T18:33:38;14.30;;;4.33;;
52668;SDS011;59898;52.786;6.892;2022-07-19T18:36:59;9.70;;;4.03;;
52668;SDS011;59898;52.786;6.892;2022-07-19T18:40:20;9.97;;;4.70;;
52668;SDS011;59898;52.786;6.892;2022-07-19T18:43:40;5.57;;;3.40;;
52668;SDS011;59898;52.786;6.892;2022-07-19T18:47:02;6.17;;;3.60;;
52668;SDS011;59898;52.786;6.892;2022-07-19T18:53:44;5.72;;;3.75;;
52668;SDS011;59898;52.786;6.892;2022-07-19T18:57:05;5.47;;;3.93;;
52668;SDS011;59898;52.786;6.892;2022-07-19T19:00:26;5.97;;;3.70;;
52668;SDS011;59898;52.786;6.892;2022-07-19T19:03:46;6.27;;;3.37;;
52668;SDS011;59898;52.786;6.892;2022-07-19T19:07:07;5.00;;;3.50;;
52668;SDS011;59898;52.786;6.892;2022-07-19T19:10:28;8.23;;;4.33;;
52668;SDS011;59898;52.786;6.892;2022-07-19T19:13:48;7.40;;;4.30;;
52668;SDS011;59898;52.786;6.892;2022-07-19T19:17:09;7.30;;;3.23;;
52668;SDS011;59898;52.786;6.892;2022-07-19T19:20:30;8.00;;;4.47;;
52668;SDS011;59898;52.786;6.892;2022-07-19T19:23:51;8.33;;;4.23;;
52668;SDS011;59898;52.786;6.892;2022-07-19T19:27:12;8.97;;;4.30;;
52668;SDS011;59898;52.786;6.892;2022-07-19T19:30:32;5.73;;;3.90;;
52668;SDS011;59898;52.786;6.892;2022-07-19T19:33:53;7.13;;;4.33;;
52668;SDS011;59898;52.786;6.892;2022-07-19T19:37:14;6.00;;;4.00;;
52668;SDS011;59898;52.786;6.892;2022-07-19T19:40:34;6.27;;;3.90;;
52668;SDS011;59898;52.786;6.892;2022-07-19T19:43:55;7.80;;;4.13;;
52668;SDS011;59898;52.786;6.892;2022-07-19T19:47:16;8.63;;;4.13;;
52668;SDS011;59898;52.786;6.892;2022-07-19T19:50:37;5.72;;;4.45;;
52668;SDS011;59898;52.786;6.892;2022-07-19T19:53:58;8.70;;;4.50;;
52668;SDS011;59898;52.786;6.892;2022-07-19T19:57:19;10.50;;;4.30;;
52668;SDS011;59898;52.786;6.892;2022-07-19T20:00:39;4.93;;;4.00;;
52668;SDS011;59898;52.786;6.892;2022-07-19T20:04:00;6.22;;;4.07;;
52668;SDS011;59898;52.786;6.892;2022-07-19T20:07:21;5.73;;;4.13;;
52668;SDS011;59898;52.786;6.892;2022-07-19T20:10:42;6.07;;;4.18;;
52668;SDS011;59898;52.786;6.892;2022-07-19T20:14:03;4.35;;;3.60;;
52668;SDS011;59898;52.786;6.892;2022-07-19T20:17:23;7.85;;;4.35;;
52668;SDS011;59898;52.786;6.892;2022-07-19T20:20:44;9.35;;;4.05;;
52668;SDS011;59898;52.786;6.892;2022-07-19T20:24:05;10.23;;;4.07;;
52668;SDS011;59898;52.786;6.892;2022-07-19T20:27:26;7.25;;;4.03;;
52668;SDS011;59898;52.786;6.892;2022-07-19T20:30:47;9.77;;;4.50;;
52668;SDS011;59898;52.786;6.892;2022-07-19T20:34:08;8.02;;;4.32;;
52668;SDS011;59898;52.786;6.892;2022-07-19T20:37:29;6.05;;;4.00;;
52668;SDS011;59898;52.786;6.892;2022-07-19T20:40:50;5.50;;;3.53;;
52668;SDS011;59898;52.786;6.892;2022-07-19T20:44:10;5.35;;;3.88;;
52668;SDS011;59898;52.786;6.892;2022-07-19T20:47:31;4.53;;;3.88;;
52668;SDS011;59898;52.786;6.892;2022-07-19T20:50:52;8.82;;;4.10;;
52668;SDS011;59898;52.786;6.892;2022-07-19T20:54:13;6.63;;;3.60;;